createdAt,value
2018-10-03T00:00:50.027Z,11.27
2018-10-03T00:01:50.054Z,11.38
2018-10-03T00:02:50.079Z,11.38
2018-10-03T00:03:50.106Z,11.38
2018-10-03T00:04:50.130Z,11.35
2018-10-03T00:05:50.156Z,11.24
2018-10-03T00:06:50.180Z,11.31
2018-10-03T00:07:50.207Z,11.28
2018-10-03T00:08:50.232Z,11.28
2018-10-03T00:09:50.258Z,11.27
2018-10-03T00:10:50.283Z,11.27
2018-10-03T00:11:50.309Z,11.27
2018-10-03T00:12:50.335Z,11.27
2018-10-03T00:13:50.362Z,11.27
2018-10-03T00:14:50.389Z,11.27
2018-10-03T00:15:50.412Z,11.35
2018-10-03T00:16:50.437Z,11.23
2018-10-03T00:17:50.463Z,11.30
2018-10-03T00:18:50.490Z,11.34
2018-10-03T00:19:50.514Z,11.30
2018-10-03T00:20:50.541Z,11.21
2018-10-03T00:21:50.566Z,11.16
2018-10-03T00:22:50.590Z,11.13
2018-10-03T00:23:50.616Z,11.09
2018-10-03T00:24:50.643Z,11.21
2018-10-03T00:25:50.668Z,11.16
2018-10-03T00:26:50.744Z,11.12
2018-10-03T00:27:50.718Z,11.16
2018-10-03T00:28:50.744Z,10.98
2018-10-03T00:29:50.769Z,11.05
2018-10-03T00:30:50.795Z,11.06
2018-10-03T00:31:50.819Z,11.06
2018-10-03T00:32:50.846Z,11.06
2018-10-03T00:33:50.872Z,11.09
2018-10-03T00:34:50.897Z,10.95
2018-10-03T00:35:50.923Z,11.03
2018-10-03T00:36:50.948Z,11.05
2018-10-03T00:37:50.973Z,11.03
2018-10-03T00:38:50.999Z,11.00
2018-10-03T00:39:51.023Z,11.06
2018-10-03T00:40:51.049Z,11.00
2018-10-03T00:41:51.075Z,10.95
2018-10-03T00:42:51.099Z,11.08
2018-10-03T00:43:51.125Z,11.00
2018-10-03T00:44:51.152Z,11.05
2018-10-03T00:45:51.178Z,11.03
2018-10-03T00:46:51.216Z,11.00
2018-10-03T00:47:51.227Z,11.08
2018-10-03T00:48:51.252Z,11.10
2018-10-03T00:49:51.279Z,11.13
2018-10-03T00:50:51.302Z,11.15
2018-10-03T00:51:51.329Z,11.16
2018-10-03T00:52:51.354Z,11.18
2018-10-03T00:53:51.379Z,11.24
2018-10-03T00:54:51.403Z,11.21
2018-10-03T00:55:51.432Z,11.20
2018-10-03T00:56:51.456Z,11.26
2018-10-03T00:57:51.481Z,11.27
2018-10-03T00:58:51.513Z,11.33
2018-10-03T00:59:51.533Z,11.28
2018-10-03T01:00:51.557Z,11.33
2018-10-03T01:01:51.584Z,11.28
2018-10-03T01:02:51.610Z,11.34
2018-10-03T01:03:51.634Z,11.35
2018-10-03T01:04:51.658Z,11.35
2018-10-03T01:05:51.684Z,11.41
2018-10-03T01:06:51.709Z,11.41
2018-10-03T01:07:51.735Z,11.39
2018-10-03T01:08:51.765Z,11.41
2018-10-03T01:09:51.786Z,11.51
2018-10-03T01:10:51.810Z,11.42
2018-10-03T01:11:51.836Z,11.41
2018-10-03T01:12:51.862Z,11.48
2018-10-03T01:13:51.889Z,11.42
2018-10-03T01:14:51.915Z,11.56
2018-10-03T01:15:51.938Z,11.56
2018-10-03T01:16:51.964Z,11.42
2018-10-03T01:17:51.991Z,11.43
2018-10-03T01:18:52.015Z,11.43
2018-10-03T01:19:52.041Z,11.52
2018-10-03T01:20:52.066Z,11.53
2018-10-03T01:21:52.092Z,11.57
2018-10-03T01:22:52.132Z,11.56
2018-10-03T01:23:52.142Z,11.52
2018-10-03T01:24:52.168Z,11.60
2018-10-03T01:25:52.194Z,11.61
2018-10-03T01:26:52.219Z,11.67
2018-10-03T01:27:52.245Z,11.67
2018-10-03T01:28:52.271Z,11.71
2018-10-03T01:29:52.297Z,11.67
2018-10-03T01:30:52.322Z,11.70
2018-10-03T01:31:52.348Z,11.66
2018-10-03T01:32:52.375Z,11.66
2018-10-03T01:33:52.400Z,11.76
2018-10-03T01:34:52.424Z,11.68
2018-10-03T01:35:52.453Z,11.66
2018-10-03T01:36:52.477Z,11.68
2018-10-03T01:37:52.503Z,11.68
2018-10-03T01:38:52.527Z,11.70
2018-10-03T01:39:52.556Z,11.75
2018-10-03T01:40:52.579Z,11.67
2018-10-03T01:41:52.604Z,11.71
2018-10-03T01:42:52.629Z,11.67
2018-10-03T01:43:52.655Z,11.76
2018-10-03T01:44:52.681Z,11.79
2018-10-03T01:45:52.708Z,11.81
2018-10-03T01:46:52.733Z,11.75
2018-10-03T01:47:52.759Z,11.76
2018-10-03T01:48:52.785Z,11.76
2018-10-03T01:49:52.810Z,11.76
2018-10-03T01:50:52.840Z,11.76
2018-10-03T01:51:52.869Z,11.76
2018-10-03T01:52:52.889Z,11.76
2018-10-03T01:53:52.916Z,11.75
2018-10-03T01:54:52.939Z,11.73
2018-10-03T01:55:52.965Z,11.70
2018-10-03T01:56:52.993Z,11.76
2018-10-03T01:57:53.018Z,11.71
2018-10-03T01:58:53.043Z,11.79
2018-10-03T01:59:53.068Z,11.75
2018-10-03T02:00:53.095Z,11.71
2018-10-03T02:01:53.120Z,11.68
2018-10-03T02:02:53.146Z,11.70
2018-10-03T02:03:53.171Z,11.73
2018-10-03T02:04:53.197Z,11.70
2018-10-03T02:05:53.224Z,11.81
2018-10-03T02:06:53.249Z,11.76
2018-10-03T02:07:53.277Z,11.79
2018-10-03T02:08:53.302Z,11.73
2018-10-03T02:09:53.327Z,11.75
2018-10-03T02:10:53.352Z,11.86
2018-10-03T02:11:53.379Z,11.85
2018-10-03T02:12:53.405Z,11.84
2018-10-03T02:13:53.430Z,11.78
2018-10-03T02:14:53.555Z,11.81
2018-10-03T02:15:53.482Z,11.73
2018-10-03T02:16:53.508Z,11.82
2018-10-03T02:17:53.535Z,11.78
2018-10-03T02:18:53.559Z,11.81
2018-10-03T02:19:53.586Z,11.78
2018-10-03T02:20:53.612Z,11.82
2018-10-03T02:21:53.637Z,11.78
2018-10-03T02:22:53.662Z,11.68
2018-10-03T02:23:53.689Z,11.73
2018-10-03T02:24:53.720Z,11.82
2018-10-03T02:25:53.741Z,11.82
2018-10-03T02:26:53.768Z,11.79
2018-10-03T02:27:53.793Z,11.84
2018-10-03T02:28:53.820Z,11.78
2018-10-03T02:29:53.845Z,11.82
2018-10-03T02:30:53.870Z,11.79
2018-10-03T02:31:53.899Z,11.86
2018-10-03T02:32:53.922Z,11.78
2018-10-03T02:33:53.948Z,11.79
2018-10-03T02:34:53.973Z,11.79
2018-10-03T02:35:54.002Z,11.79
2018-10-03T02:36:54.026Z,11.82
2018-10-03T02:37:54.054Z,11.78
2018-10-03T02:38:54.077Z,11.79
2018-10-03T02:39:54.103Z,11.82
2018-10-03T02:40:54.130Z,11.79
2018-10-03T02:41:54.155Z,11.79
2018-10-03T02:42:54.180Z,11.75
2018-10-03T02:43:54.209Z,11.81
2018-10-03T02:44:54.233Z,11.86
2018-10-03T02:45:54.259Z,11.76
2018-10-03T02:46:54.286Z,11.86
2018-10-03T02:47:54.311Z,11.82
2018-10-03T02:48:54.338Z,11.82
2018-10-03T02:49:54.364Z,11.79
2018-10-03T02:50:54.390Z,11.84
2018-10-03T02:51:54.415Z,11.81
2018-10-03T02:52:54.440Z,11.86
2018-10-03T02:53:54.467Z,11.82
2018-10-03T02:54:54.492Z,11.94
2018-10-03T02:55:54.518Z,11.89
2018-10-03T02:56:54.544Z,11.97
2018-10-03T02:57:54.572Z,11.88
2018-10-03T02:58:54.598Z,11.98
2018-10-03T02:59:54.622Z,11.91
2018-10-03T03:00:54.648Z,11.86
2018-10-03T03:01:54.689Z,11.86
2018-10-03T03:02:54.700Z,11.98
2018-10-03T03:03:54.725Z,11.91
2018-10-03T03:04:54.760Z,11.88
2018-10-03T03:05:54.777Z,11.91
2018-10-03T03:06:54.802Z,11.89
2018-10-03T03:07:54.828Z,11.95
2018-10-03T03:08:54.872Z,11.85
2018-10-03T03:09:54.881Z,11.88
2018-10-03T03:10:54.906Z,12.01
2018-10-03T03:11:54.935Z,11.94
2018-10-03T03:12:54.961Z,12.00
2018-10-03T03:13:54.999Z,11.94
2018-10-03T03:14:55.014Z,12.03
2018-10-03T03:15:55.036Z,11.95
2018-10-03T03:16:55.062Z,12.10
2018-10-03T03:17:55.089Z,12.04
2018-10-03T03:18:55.113Z,11.95
2018-10-03T03:19:55.139Z,12.08
2018-10-03T03:20:55.173Z,12.00
2018-10-03T03:21:55.195Z,12.03
2018-10-03T03:22:55.216Z,12.00
2018-10-03T03:23:55.244Z,12.07
2018-10-03T03:24:55.273Z,12.11
2018-10-03T03:25:55.295Z,12.07
2018-10-03T03:26:55.323Z,12.13
2018-10-03T03:27:55.346Z,12.08
2018-10-03T03:28:55.373Z,12.07
2018-10-03T03:29:55.398Z,12.13
2018-10-03T03:30:55.425Z,12.10
2018-10-03T03:31:55.457Z,12.10
2018-10-03T03:32:55.476Z,12.07
2018-10-03T03:33:55.502Z,12.10
2018-10-03T03:34:55.535Z,12.07
2018-10-03T03:35:55.553Z,12.10
2018-10-03T03:36:55.580Z,12.10
2018-10-03T03:37:55.606Z,12.05
2018-10-03T03:38:55.630Z,12.10
2018-10-03T03:39:55.657Z,12.08
2018-10-03T03:40:55.684Z,12.13
2018-10-03T03:41:55.709Z,12.16
2018-10-03T03:42:55.734Z,12.07
2018-10-03T03:43:55.760Z,12.11
2018-10-03T03:44:55.787Z,12.13
2018-10-03T03:45:55.813Z,12.16
2018-10-03T03:46:55.838Z,12.13
2018-10-03T03:47:55.864Z,12.07
2018-10-03T03:48:55.893Z,12.11
2018-10-03T03:49:55.924Z,12.13
2018-10-03T03:50:55.941Z,12.16
2018-10-03T03:51:55.968Z,12.13
2018-10-03T03:52:55.995Z,12.08
2018-10-03T03:53:56.020Z,12.11
2018-10-03T03:54:56.045Z,12.04
2018-10-03T03:55:56.074Z,12.13
2018-10-03T03:56:56.101Z,12.11
2018-10-03T03:57:56.124Z,12.03
2018-10-03T03:58:56.150Z,12.11
2018-10-03T03:59:56.176Z,12.08
2018-10-03T04:00:56.201Z,12.04
2018-10-03T04:01:56.229Z,11.89
2018-10-03T04:02:56.256Z,12.01
2018-10-03T04:03:56.279Z,12.03
2018-10-03T04:04:56.305Z,11.95
2018-10-03T04:05:56.332Z,12.03
2018-10-03T04:06:56.357Z,12.05
2018-10-03T04:07:56.389Z,12.05
2018-10-03T04:08:56.409Z,12.04
2018-10-03T04:09:56.435Z,12.04
2018-10-03T04:10:56.460Z,12.01
2018-10-03T04:11:56.485Z,12.04
2018-10-03T04:12:56.512Z,12.05
2018-10-03T04:13:56.539Z,12.03
2018-10-03T04:14:56.564Z,12.01
2018-10-03T04:15:56.590Z,12.03
2018-10-03T04:16:56.616Z,12.04
2018-10-03T04:17:56.644Z,12.04
2018-10-03T04:18:56.672Z,11.97
2018-10-03T04:19:56.692Z,12.05
2018-10-03T04:20:56.720Z,12.01
2018-10-03T04:21:56.744Z,11.95
2018-10-03T04:22:56.770Z,11.88
2018-10-03T04:23:56.796Z,11.91
2018-10-03T04:24:56.824Z,11.95
2018-10-03T04:25:56.848Z,11.89
2018-10-03T04:26:56.873Z,11.91
2018-10-03T04:27:56.899Z,11.97
2018-10-03T04:28:56.925Z,11.89
2018-10-03T04:29:56.951Z,11.91
2018-10-03T04:30:56.977Z,11.97
2018-10-03T04:31:57.003Z,11.95
2018-10-03T04:32:57.030Z,11.86
2018-10-03T04:33:57.057Z,11.85
2018-10-03T04:34:57.080Z,11.85
2018-10-03T04:35:57.106Z,11.85
2018-10-03T04:36:57.132Z,11.78
2018-10-03T04:37:57.158Z,11.91
2018-10-03T04:38:57.184Z,11.76
2018-10-03T04:39:57.209Z,11.82
2018-10-03T04:40:57.235Z,11.71
2018-10-03T04:41:57.261Z,11.85
2018-10-03T04:42:57.287Z,11.79
2018-10-03T04:43:57.313Z,11.78
2018-10-03T04:44:57.343Z,11.67
2018-10-03T04:45:57.365Z,11.67
2018-10-03T04:46:57.393Z,11.66
2018-10-03T04:47:57.415Z,11.64
2018-10-03T04:48:57.501Z,11.60
2018-10-03T04:49:57.468Z,11.67
2018-10-03T04:50:57.495Z,11.59
2018-10-03T04:51:57.520Z,11.53
2018-10-03T04:52:57.547Z,11.68
2018-10-03T04:53:57.572Z,11.64
2018-10-03T04:54:57.596Z,11.63
2018-10-03T04:55:57.622Z,11.57
2018-10-03T04:56:57.649Z,11.61
2018-10-03T04:57:57.673Z,11.56
2018-10-03T04:58:57.700Z,11.53
2018-10-03T04:59:57.725Z,11.63
2018-10-03T05:00:57.750Z,11.57
2018-10-03T05:01:57.776Z,11.63
2018-10-03T05:02:57.802Z,11.57
2018-10-03T05:03:57.830Z,11.68
2018-10-03T05:04:57.855Z,11.51
2018-10-03T05:05:57.879Z,11.59
2018-10-03T05:06:57.909Z,11.53
2018-10-03T05:07:57.930Z,11.53
2018-10-03T05:08:57.960Z,11.63
2018-10-03T05:09:57.982Z,11.66
2018-10-03T05:10:58.007Z,11.64
2018-10-03T05:11:58.034Z,11.63
2018-10-03T05:12:58.059Z,11.64
2018-10-03T05:13:58.086Z,11.63
2018-10-03T05:14:58.110Z,11.68
2018-10-03T05:15:58.139Z,11.64
2018-10-03T05:16:58.163Z,11.71
2018-10-03T05:17:58.187Z,11.66
2018-10-03T05:18:58.213Z,11.61
2018-10-03T05:19:58.240Z,11.67
2018-10-03T05:20:58.265Z,11.63
2018-10-03T05:21:58.290Z,11.70
2018-10-03T05:22:58.315Z,11.73
2018-10-03T05:23:58.342Z,11.64
2018-10-03T05:24:58.367Z,11.63
2018-10-03T05:25:58.394Z,11.70
2018-10-03T05:26:58.420Z,11.68
2018-10-03T05:27:58.476Z,11.70
2018-10-03T05:28:58.470Z,11.76
2018-10-03T05:29:58.496Z,11.68
2018-10-03T05:30:58.522Z,11.70
2018-10-03T05:31:58.547Z,11.67
2018-10-03T05:32:58.575Z,11.71
2018-10-03T05:33:58.602Z,11.71
2018-10-03T05:34:58.626Z,11.71
2018-10-03T05:35:58.651Z,11.76
2018-10-03T05:36:58.677Z,11.71
2018-10-03T05:37:58.703Z,11.67
2018-10-03T05:38:58.728Z,11.63
2018-10-03T05:39:58.754Z,11.63
2018-10-03T05:40:58.781Z,11.63
2018-10-03T05:41:58.806Z,11.67
2018-10-03T05:42:58.831Z,11.66
2018-10-03T05:43:58.861Z,11.59
2018-10-03T05:44:58.884Z,11.57
2018-10-03T05:45:58.909Z,11.64
2018-10-03T05:46:58.935Z,12.15
2018-10-03T05:47:58.960Z,12.16
2018-10-03T05:48:58.989Z,12.26
2018-10-03T05:49:59.013Z,12.29
2018-10-03T05:50:59.039Z,12.47
2018-10-03T05:51:59.065Z,12.44
2018-10-03T05:52:59.090Z,12.59
2018-10-03T05:53:59.120Z,12.91
2018-10-03T05:54:59.142Z,12.83
2018-10-03T05:55:59.170Z,12.61
2018-10-03T05:56:59.194Z,12.47
2018-10-03T05:57:59.219Z,12.43
2018-10-03T05:58:59.245Z,12.40
2018-10-03T05:59:59.272Z,12.20
2018-10-03T06:00:59.299Z,12.22
2018-10-03T06:01:59.322Z,12.08
2018-10-03T06:02:59.441Z,12.03
2018-10-03T06:03:59.374Z,11.98
2018-10-03T06:04:59.400Z,11.91
2018-10-03T06:05:59.428Z,11.86
2018-10-03T06:06:59.452Z,11.85
2018-10-03T06:07:59.477Z,11.81
2018-10-03T06:08:59.505Z,11.78
2018-10-03T06:09:59.533Z,11.81
2018-10-03T06:10:59.556Z,11.78
2018-10-03T06:11:59.612Z,11.71
2018-10-03T06:12:59.608Z,11.78
2018-10-03T06:13:59.636Z,11.82
2018-10-03T06:14:59.661Z,11.75
2018-10-03T06:15:59.686Z,11.79
2018-10-03T06:16:59.712Z,11.75
2018-10-03T06:17:59.745Z,11.82
2018-10-03T06:18:59.766Z,11.81
2018-10-03T06:19:59.791Z,11.79
2018-10-03T06:20:59.816Z,11.82
2018-10-03T06:21:59.842Z,11.81
2018-10-03T06:22:59.868Z,11.88
2018-10-03T06:23:59.894Z,11.89
2018-10-03T06:24:59.920Z,11.97
2018-10-03T06:25:59.949Z,11.89
2018-10-03T06:26:59.972Z,11.95
2018-10-03T06:28:00.087Z,11.98
2018-10-03T06:29:00.028Z,12.04
2018-10-03T06:30:00.052Z,11.98
2018-10-03T06:31:00.077Z,11.91
2018-10-03T06:32:00.103Z,11.97
2018-10-03T06:33:00.130Z,11.98
2018-10-03T06:34:00.156Z,11.98
2018-10-03T06:35:00.183Z,12.03
2018-10-03T06:36:00.208Z,12.03
2018-10-03T06:37:00.234Z,12.03
2018-10-03T06:38:00.264Z,12.07
2018-10-03T06:39:00.287Z,12.05
2018-10-03T06:40:00.313Z,12.10
2018-10-03T06:41:00.343Z,12.08
2018-10-03T06:42:00.366Z,12.04
2018-10-03T06:43:00.391Z,12.08
2018-10-03T06:44:00.417Z,12.16
2018-10-03T06:45:00.442Z,12.18
2018-10-03T06:46:00.470Z,12.23
2018-10-03T06:47:00.495Z,12.25
2018-10-03T06:48:00.523Z,12.22
2018-10-03T06:49:00.549Z,12.22
2018-10-03T06:50:00.574Z,12.25
2018-10-03T06:51:00.600Z,12.19
2018-10-03T06:52:00.625Z,12.25
2018-10-03T06:53:00.656Z,12.33
2018-10-03T06:54:00.681Z,12.33
2018-10-03T06:55:00.704Z,12.36
2018-10-03T06:56:00.733Z,12.41
2018-10-03T06:57:00.846Z,12.34
2018-10-03T06:58:00.784Z,12.43
2018-10-03T06:59:00.809Z,12.40
2018-10-03T07:00:00.835Z,12.41
2018-10-03T07:01:00.863Z,12.47
2018-10-03T07:02:00.890Z,12.52
2018-10-03T07:03:00.914Z,12.55
2018-10-03T07:04:00.942Z,12.51
2018-10-03T07:05:00.967Z,12.59
2018-10-03T07:06:00.998Z,12.62
2018-10-03T07:07:01.023Z,12.55
2018-10-03T07:08:01.045Z,12.61
2018-10-03T07:09:01.072Z,12.61
2018-10-03T07:10:01.099Z,12.73
2018-10-03T07:11:01.125Z,12.69
2018-10-03T07:12:01.151Z,12.73
2018-10-03T07:13:01.220Z,12.70
2018-10-03T07:14:01.204Z,12.70
2018-10-03T07:15:01.232Z,12.80
2018-10-03T07:16:01.258Z,12.89
2018-10-03T07:17:01.287Z,12.91
2018-10-03T07:18:01.310Z,12.92
2018-10-03T07:19:01.335Z,12.94
2018-10-03T07:20:01.373Z,12.95
2018-10-03T07:21:01.413Z,12.84
2018-10-03T07:22:01.417Z,12.91
2018-10-03T07:23:01.444Z,12.96
2018-10-03T07:24:01.470Z,13.06
2018-10-03T07:25:01.498Z,13.13
2018-10-03T07:26:01.526Z,13.11
2018-10-03T07:27:01.549Z,13.17
2018-10-03T07:28:01.575Z,13.13
2018-10-03T07:29:01.603Z,13.20
2018-10-03T07:30:01.630Z,13.19
2018-10-03T07:31:01.657Z,13.29
2018-10-03T07:32:01.683Z,13.27
2018-10-03T07:33:01.720Z,13.27
2018-10-03T07:34:01.738Z,13.47
2018-10-03T07:35:01.764Z,13.47
2018-10-03T07:36:01.792Z,13.44
2018-10-03T07:37:01.817Z,13.44
2018-10-03T07:38:01.845Z,13.35
2018-10-03T07:39:01.876Z,13.42
2018-10-03T07:40:01.896Z,13.44
2018-10-03T07:41:01.923Z,13.57
2018-10-03T07:42:01.951Z,13.58
2018-10-03T07:43:01.978Z,13.60
2018-10-03T07:44:02.079Z,13.54
2018-10-03T07:45:02.039Z,13.58
2018-10-03T07:46:02.058Z,13.81
2018-10-03T07:47:02.086Z,13.87
2018-10-03T07:48:02.174Z,13.94
2018-10-03T07:49:02.139Z,14.06
2018-10-03T07:50:02.167Z,14.15
2018-10-03T07:51:02.193Z,14.19
2018-10-03T07:52:02.221Z,14.30
2018-10-03T07:53:02.249Z,14.45
2018-10-03T07:54:02.277Z,14.53
2018-10-03T07:55:02.302Z,14.67
2018-10-03T07:56:02.330Z,14.95
2018-10-03T07:57:02.358Z,14.70
2018-10-03T07:58:02.386Z,14.63
2018-10-03T07:59:02.484Z,14.51
2018-10-03T08:00:02.443Z,14.42
2018-10-03T08:01:02.469Z,14.28
2018-10-03T08:02:02.497Z,14.31
2018-10-03T08:03:02.523Z,14.26
2018-10-03T08:04:02.550Z,14.30
2018-10-03T08:05:02.579Z,14.53
2018-10-03T08:06:02.608Z,14.74
2018-10-03T08:07:02.634Z,14.66
2018-10-03T08:08:02.663Z,14.70
2018-10-03T08:09:02.691Z,14.77
2018-10-03T08:10:02.743Z,14.77
2018-10-03T08:11:02.748Z,14.70
2018-10-03T08:12:02.773Z,14.71
2018-10-03T08:13:02.802Z,14.87
2018-10-03T08:14:02.831Z,15.12
2018-10-03T08:15:02.862Z,15.45
2018-10-03T08:16:02.888Z,15.18
2018-10-03T08:17:02.915Z,14.95
2018-10-03T08:18:02.943Z,14.98
2018-10-03T08:19:02.971Z,15.08
2018-10-03T08:20:02.999Z,15.20
2018-10-03T08:21:03.029Z,15.13
2018-10-03T08:22:03.057Z,15.07
2018-10-03T08:23:03.084Z,14.86
2018-10-03T08:24:03.112Z,14.93
2018-10-03T08:25:03.140Z,15.02
2018-10-03T08:26:03.169Z,15.10
2018-10-03T08:27:03.198Z,14.93
2018-10-03T08:28:03.226Z,14.93
2018-10-03T08:29:03.255Z,15.07
2018-10-03T08:30:03.296Z,14.94
2018-10-03T08:31:03.311Z,15.04
2018-10-03T08:32:03.341Z,15.12
2018-10-03T08:33:03.421Z,15.38
2018-10-03T08:34:03.397Z,15.34
2018-10-03T08:35:03.424Z,15.40
2018-10-03T08:36:03.454Z,15.34
2018-10-03T08:37:03.482Z,15.40
2018-10-03T08:38:03.511Z,15.44
2018-10-03T08:39:03.540Z,15.47
2018-10-03T08:40:03.568Z,15.91
2018-10-03T08:41:03.596Z,16.77
2018-10-03T08:42:03.625Z,16.80
2018-10-03T08:43:03.654Z,17.05
2018-10-03T08:44:03.683Z,18.21
2018-10-03T08:45:03.713Z,17.83
2018-10-03T08:46:03.742Z,17.39
2018-10-03T08:48:26.421Z,16.14
2018-10-03T08:49:26.450Z,16.16
2018-10-03T08:50:26.476Z,16.29
2018-10-03T08:51:26.506Z,16.76
2018-10-03T08:52:26.538Z,17.07
2018-10-03T08:53:26.573Z,17.87
2018-10-03T08:54:26.601Z,17.63
2018-10-03T08:55:26.625Z,17.32
2018-10-03T08:56:26.656Z,17.36
2018-10-03T08:57:26.688Z,17.86
2018-10-03T08:58:26.878Z,18.26
2018-10-03T08:59:26.747Z,18.66
2018-10-03T09:00:26.779Z,19.17
2018-10-03T09:01:26.808Z,18.99
2018-10-03T09:02:26.838Z,18.82
2018-10-03T09:03:26.870Z,18.75
2018-10-03T09:04:26.901Z,18.96
2018-10-03T09:05:26.933Z,19.45
2018-10-03T09:06:26.964Z,19.38
2018-10-03T09:07:26.997Z,19.43
2018-10-03T09:08:27.029Z,18.93
2018-10-03T09:09:27.061Z,19.30
2018-10-03T09:10:27.093Z,19.46
2018-10-03T09:11:27.136Z,19.68
2018-10-03T09:12:27.157Z,19.45
2018-10-03T09:13:27.190Z,19.86
2018-10-03T09:14:27.223Z,19.85
2018-10-03T09:15:27.256Z,20.10
2018-10-03T09:16:27.290Z,20.15
2018-10-03T09:17:27.323Z,19.43
2018-10-03T09:18:27.356Z,19.05
2018-10-03T09:19:27.390Z,19.32
2018-10-03T09:20:27.425Z,19.37
2018-10-03T09:21:27.519Z,19.68
2018-10-03T09:22:27.493Z,20.38
2018-10-03T09:23:27.527Z,20.27
2018-10-03T09:24:27.563Z,20.29
2018-10-03T09:26:40.227Z,20.15
2018-10-03T09:27:40.301Z,20.05
2018-10-03T09:28:40.295Z,19.53
2018-10-03T09:29:40.330Z,19.47
2018-10-03T09:30:40.364Z,20.18
2018-10-03T09:31:40.399Z,20.37
2018-10-03T09:32:44.269Z,20.60
2018-10-03T09:33:40.466Z,20.38
2018-10-03T09:34:40.501Z,20.23
2018-10-03T09:35:40.536Z,20.57
2018-10-03T09:36:40.571Z,20.91
2018-10-03T09:37:40.604Z,20.94
2018-10-03T09:38:40.639Z,20.90
2018-10-03T09:39:40.722Z,20.74
2018-10-03T09:40:40.708Z,20.29
2018-10-03T09:41:40.745Z,19.75
2018-10-03T09:42:40.780Z,19.32
2018-10-03T09:43:40.871Z,19.30
2018-10-03T09:44:43.549Z,19.89
2018-10-03T09:45:40.885Z,20.10
2018-10-03T09:46:40.922Z,20.07
2018-10-03T09:47:40.965Z,20.48
2018-10-03T09:48:40.994Z,20.75
2018-10-03T09:49:41.029Z,20.71
2018-10-03T09:50:41.063Z,21.03
2018-10-03T09:51:41.101Z,21.16
2018-10-03T09:52:41.134Z,21.13
2018-10-03T09:53:41.170Z,20.85
2018-10-03T09:54:41.207Z,19.74
2018-10-03T09:55:41.243Z,19.60
2018-10-03T09:56:41.277Z,20.35
2018-10-03T09:57:41.314Z,20.74
2018-10-03T09:58:41.353Z,20.78
2018-10-03T09:59:41.388Z,21.51
2018-10-03T10:00:41.452Z,21.11
2018-10-03T10:01:41.459Z,21.41
2018-10-03T10:02:41.494Z,21.13
2018-10-03T10:03:41.530Z,21.53
2018-10-03T10:04:41.567Z,21.27
2018-10-03T10:05:41.604Z,21.48
2018-10-03T10:06:41.639Z,21.61
2018-10-03T10:07:41.677Z,21.58
2018-10-03T10:08:41.712Z,21.52
2018-10-03T10:09:41.748Z,21.83
2018-10-03T10:10:41.789Z,21.92
2018-10-03T10:11:41.987Z,21.11
2018-10-03T10:12:41.857Z,20.29
2018-10-03T10:13:41.895Z,19.68
2018-10-03T10:14:41.931Z,19.47
2018-10-03T10:15:41.968Z,19.70
2018-10-03T10:16:42.004Z,20.11
2018-10-03T10:17:42.042Z,20.16
2018-10-03T10:18:42.077Z,20.29
2018-10-03T10:19:42.114Z,20.54
2018-10-03T10:20:42.211Z,20.96
2018-10-03T10:21:42.185Z,21.15
2018-10-03T10:22:42.222Z,21.82
2018-10-03T10:23:42.258Z,21.11
2018-10-03T10:24:42.294Z,20.96
2018-10-03T10:25:42.330Z,21.16
2018-10-03T10:26:42.367Z,21.58
2018-10-03T10:27:42.404Z,22.22
2018-10-03T10:28:42.441Z,21.82
2018-10-03T10:29:42.475Z,21.71
2018-10-03T10:30:42.513Z,21.28
2018-10-03T10:31:42.574Z,21.41
2018-10-03T10:32:42.611Z,21.48
2018-10-03T10:33:42.620Z,21.86
2018-10-03T10:34:42.657Z,21.48
2018-10-03T10:35:42.693Z,21.89
2018-10-03T10:36:42.729Z,21.82
2018-10-03T10:37:42.785Z,21.85
2018-10-03T10:38:42.803Z,21.77
2018-10-03T10:39:42.839Z,21.45
2018-10-03T10:40:43.124Z,21.30
2018-10-03T10:41:42.914Z,21.80
2018-10-03T10:42:42.949Z,21.68
2018-10-03T10:43:42.986Z,21.82
2018-10-03T10:44:43.022Z,21.41
2018-10-03T10:45:43.059Z,21.23
2018-10-03T10:46:43.155Z,21.66
2018-10-03T10:47:43.134Z,22.00
2018-10-03T10:48:43.169Z,20.58
2018-10-03T10:49:43.211Z,20.91
2018-10-03T10:50:43.245Z,21.33
2018-10-03T10:51:43.319Z,20.83
2018-10-03T10:52:43.318Z,19.82
2018-10-03T10:53:43.356Z,18.87
2018-10-03T10:54:43.393Z,18.10
2018-10-03T10:55:43.426Z,17.88
2018-10-03T10:57:33.854Z,17.77
2018-10-03T10:58:31.065Z,17.98
2018-10-03T10:59:31.102Z,19.63
2018-10-03T11:00:31.135Z,20.46
2018-10-03T11:01:31.171Z,20.61
2018-10-03T11:02:31.207Z,21.62
2018-10-03T11:03:31.241Z,21.67
2018-10-03T11:04:31.276Z,21.62
2018-10-03T11:05:31.316Z,22.08
2018-10-03T11:06:31.381Z,22.29
2018-10-03T11:07:31.382Z,22.44
2018-10-03T11:08:31.416Z,22.69
2018-10-03T11:09:31.451Z,21.77
2018-10-03T11:10:31.489Z,21.33
2018-10-03T11:11:31.524Z,21.40
2018-10-03T11:12:31.557Z,21.76
2018-10-03T11:13:31.593Z,21.89
2018-10-03T11:14:31.628Z,22.33
2018-10-03T11:15:31.698Z,22.27
2018-10-03T11:16:31.699Z,21.90
2018-10-03T11:17:31.735Z,21.59
2018-10-03T11:18:31.772Z,20.94
2018-10-03T11:19:31.807Z,20.37
2018-10-03T11:20:31.842Z,19.64
2018-10-03T11:21:31.928Z,19.32
2018-10-03T11:22:31.914Z,19.16
2018-10-03T11:23:32.031Z,18.87
2018-10-03T11:24:32.185Z,18.36
2018-10-03T11:25:32.020Z,18.11
2018-10-03T11:27:14.610Z,17.98
2018-10-03T11:28:17.265Z,17.98
2018-10-03T11:29:14.678Z,18.50
2018-10-03T11:30:14.711Z,18.59
2018-10-03T11:31:14.744Z,18.76
2018-10-03T11:32:14.847Z,19.61
2018-10-03T11:33:14.812Z,19.75
2018-10-03T11:34:14.845Z,19.85
2018-10-03T11:35:14.878Z,19.93
2018-10-03T11:36:14.912Z,20.34
2018-10-03T11:37:14.945Z,20.94
2018-10-03T11:38:15.043Z,21.30
2018-10-03T11:39:15.084Z,20.88
2018-10-03T11:40:15.045Z,20.66
2018-10-03T11:41:15.079Z,21.01
2018-10-03T11:42:15.111Z,21.23
2018-10-03T11:43:15.144Z,21.34
2018-10-03T11:44:15.179Z,21.40
2018-10-03T11:45:15.214Z,21.18
2018-10-03T11:46:15.245Z,21.11
2018-10-03T11:47:15.280Z,21.06
2018-10-03T11:48:15.317Z,21.08
2018-10-03T11:49:15.348Z,21.03
2018-10-03T11:50:15.380Z,21.58
2018-10-03T11:51:15.415Z,21.83
2018-10-03T11:52:15.449Z,21.61
2018-10-03T11:53:15.487Z,20.97
2018-10-03T11:54:15.518Z,21.55
2018-10-03T11:55:15.551Z,22.33
2018-10-03T11:56:15.586Z,22.45
2018-10-03T11:57:15.627Z,21.90
2018-10-03T11:58:15.655Z,21.38
2018-10-03T11:59:15.691Z,20.97
2018-10-03T12:00:15.724Z,20.68
2018-10-03T12:01:15.760Z,20.97
2018-10-03T12:02:15.795Z,20.54
2018-10-03T12:03:15.984Z,20.34
2018-10-03T12:04:15.862Z,20.07
2018-10-03T12:05:15.898Z,20.34
2018-10-03T12:06:15.967Z,19.86
2018-10-03T12:07:15.966Z,20.86
2018-10-03T12:08:15.999Z,21.80
2018-10-03T12:09:16.091Z,21.86
2018-10-03T12:10:16.069Z,21.96
2018-10-03T12:11:16.102Z,22.75
2018-10-03T12:12:16.140Z,23.14
2018-10-03T12:13:16.173Z,23.29
2018-10-03T12:14:16.205Z,23.15
2018-10-03T12:15:16.240Z,23.01
2018-10-03T12:16:16.275Z,21.85
2018-10-03T12:17:16.310Z,21.92
2018-10-03T12:18:16.343Z,21.23
2018-10-03T12:19:16.380Z,20.42
2018-10-03T12:20:16.415Z,20.57
2018-10-03T12:21:16.448Z,20.83
2018-10-03T12:22:16.482Z,21.45
2018-10-03T12:23:16.519Z,22.41
2018-10-03T12:24:16.552Z,22.24
2018-10-03T12:25:16.698Z,22.73
2018-10-03T12:26:16.620Z,22.08
2018-10-03T12:27:16.657Z,22.82
2018-10-03T12:28:16.689Z,22.67
2018-10-03T12:29:16.726Z,23.12
2018-10-03T12:30:16.761Z,23.59
2018-10-03T12:31:16.794Z,23.63
2018-10-03T12:32:16.828Z,24.08
2018-10-03T12:33:16.877Z,24.14
2018-10-03T12:34:16.898Z,23.57
2018-10-03T12:35:16.932Z,23.90
2018-10-03T12:36:16.967Z,23.99
2018-10-03T12:37:17.005Z,23.18
2018-10-03T12:38:17.039Z,23.53
2018-10-03T12:39:17.075Z,22.75
2018-10-03T12:40:17.110Z,22.59
2018-10-03T12:41:17.144Z,22.49
2018-10-03T12:42:17.180Z,22.60
2018-10-03T12:43:17.214Z,22.59
2018-10-03T12:44:17.250Z,22.94
2018-10-03T12:45:17.291Z,23.01
2018-10-03T12:46:17.320Z,22.99
2018-10-03T12:47:17.356Z,22.55
2018-10-03T12:48:17.392Z,22.26
2018-10-03T12:49:17.428Z,22.76
2018-10-03T12:50:17.462Z,22.63
2018-10-03T12:51:17.498Z,22.84
2018-10-03T12:52:17.534Z,23.28
2018-10-03T12:53:17.569Z,23.94
2018-10-03T12:54:17.604Z,24.07
2018-10-03T12:55:17.640Z,23.79
2018-10-03T12:56:17.680Z,23.71
2018-10-03T12:57:17.715Z,22.18